sensor_id;sensor_type;location;lat;lon;timestamp;temperature;humidity
12771;DHT22;6449;47.666;9.160;2023-07-08T00:00:22;19.80;99.90
12771;DHT22;6449;47.666;9.160;2023-07-08T00:05:17;19.80;99.90
12771;DHT22;6449;47.666;9.160;2023-07-08T00:10:16;19.90;99.90
12771;DHT22;6449;47.666;9.160;2023-07-08T00:15:11;20.00;99.90
12771;DHT22;6449;47.666;9.160;2023-07-08T00:20:15;19.90;99.90
12771;DHT22;6449;47.666;9.160;2023-07-08T00:25:10;19.80;99.90
12771;DHT22;6449;47.666;9.160;2023-07-08T00:30:20;19.70;99.90
12771;DHT22;6449;47.666;9.160;2023-07-08T00:35:15;19.70;99.90
12771;DHT22;6449;47.666;9.160;2023-07-08T00:40:14;19.60;99.90
12771;DHT22;6449;47.666;9.160;2023-07-08T00:45:16;19.50;99.90
12771;DHT22;6449;47.666;9.160;2023-07-08T00:50:18;19.50;99.90
12771;DHT22;6449;47.666;9.160;2023-07-08T00:55:11;19.50;99.90
12771;DHT22;6449;47.666;9.160;2023-07-08T01:00:07;19.40;99.90
12771;DHT22;6449;47.666;9.160;2023-07-08T01:05:08;19.70;99.90
12771;DHT22;6449;47.666;9.160;2023-07-08T01:10:07;20.00;99.90
12771;DHT22;6449;47.666;9.160;2023-07-08T01:15:07;20.20;99.90
12771;DHT22;6449;47.666;9.160;2023-07-08T01:20:02;20.40;99.90
12771;DHT22;6449;47.666;9.160;2023-07-08T01:25:01;20.40;99.90
12771;DHT22;6449;47.666;9.160;2023-07-08T01:29:56;20.40;99.90
12771;DHT22;6449;47.666;9.160;2023-07-08T01:34:51;20.40;99.90
12771;DHT22;6449;47.666;9.160;2023-07-08T01:39:52;20.30;99.90
12771;DHT22;6449;47.666;9.160;2023-07-08T01:44:48;20.10;99.90
12771;DHT22;6449;47.666;9.160;2023-07-08T01:49:43;20.20;99.90
12771;DHT22;6449;47.666;9.160;2023-07-08T01:54:40;19.80;99.90
12771;DHT22;6449;47.666;9.160;2023-07-08T01:59:33;19.50;99.90
12771;DHT22;6449;47.666;9.160;2023-07-08T02:04:28;19.60;99.90
12771;DHT22;6449;47.666;9.160;2023-07-08T02:09:22;19.80;99.90
12771;DHT22;6449;47.666;9.160;2023-07-08T02:14:17;19.80;99.90
12771;DHT22;6449;47.666;9.160;2023-07-08T02:19:11;19.60;99.90
12771;DHT22;6449;47.666;9.160;2023-07-08T02:24:07;19.60;99.90
12771;DHT22;6449;47.666;9.160;2023-07-08T02:29:00;19.60;99.90
12771;DHT22;6449;47.666;9.160;2023-07-08T02:33:54;19.60;99.90
12771;DHT22;6449;47.666;9.160;2023-07-08T02:38:48;19.80;99.90
12771;DHT22;6449;47.666;9.160;2023-07-08T02:43:43;19.90;99.90
12771;DHT22;6449;47.666;9.160;2023-07-08T02:48:37;19.90;99.90
12771;DHT22;6449;47.666;9.160;2023-07-08T02:53:30;19.60;99.90
12771;DHT22;6449;47.666;9.160;2023-07-08T02:58:24;19.50;99.90
12771;DHT22;6449;47.666;9.160;2023-07-08T03:03:19;19.50;99.90
12771;DHT22;6449;47.666;9.160;2023-07-08T03:08:13;19.50;99.90
12771;DHT22;6449;47.666;9.160;2023-07-08T03:13:06;19.50;99.90
12771;DHT22;6449;47.666;9.160;2023-07-08T03:17:59;19.60;99.90
12771;DHT22;6449;47.666;9.160;2023-07-08T03:22:54;19.70;99.90
12771;DHT22;6449;47.666;9.160;2023-07-08T03:27:47;19.90;99.90
12771;DHT22;6449;47.666;9.160;2023-07-08T03:32:41;20.00;99.90
12771;DHT22;6449;47.666;9.160;2023-07-08T03:37:34;19.80;99.90
12771;DHT22;6449;47.666;9.160;2023-07-08T03:42:29;19.30;99.90
12771;DHT22;6449;47.666;9.160;2023-07-08T03:47:22;19.10;99.90
12771;DHT22;6449;47.666;9.160;2023-07-08T03:52:16;18.90;99.90
12771;DHT22;6449;47.666;9.160;2023-07-08T03:57:10;19.10;99.90
12771;DHT22;6449;47.666;9.160;2023-07-08T04:02:04;19.20;99.90
12771;DHT22;6449;47.666;9.160;2023-07-08T04:06:58;19.30;99.90
12771;DHT22;6449;47.666;9.160;2023-07-08T04:11:51;19.40;99.90
12771;DHT22;6449;47.666;9.160;2023-07-08T04:16:48;19.30;99.90
12771;DHT22;6449;47.666;9.160;2023-07-08T04:21:46;19.30;99.90
12771;DHT22;6449;47.666;9.160;2023-07-08T04:26:41;19.10;99.90
12771;DHT22;6449;47.666;9.160;2023-07-08T04:31:34;19.10;99.90
12771;DHT22;6449;47.666;9.160;2023-07-08T04:36:28;19.10;99.90
12771;DHT22;6449;47.666;9.160;2023-07-08T04:41:22;19.40;99.90
12771;DHT22;6449;47.666;9.160;2023-07-08T04:46:19;19.50;99.90
12771;DHT22;6449;47.666;9.160;2023-07-08T04:51:21;19.50;99.90
12771;DHT22;6449;47.666;9.160;2023-07-08T04:56:16;19.60;99.90
12771;DHT22;6449;47.666;9.160;2023-07-08T05:01:11;19.60;99.90
12771;DHT22;6449;47.666;9.160;2023-07-08T05:06:04;19.90;99.90
12771;DHT22;6449;47.666;9.160;2023-07-08T05:10:57;20.00;99.90
12771;DHT22;6449;47.666;9.160;2023-07-08T05:15:51;20.10;99.90
12771;DHT22;6449;47.666;9.160;2023-07-08T05:20:51;20.10;99.90
12771;DHT22;6449;47.666;9.160;2023-07-08T05:25:47;20.10;99.90
12771;DHT22;6449;47.666;9.160;2023-07-08T05:30:41;20.20;99.90
12771;DHT22;6449;47.666;9.160;2023-07-08T05:35:34;20.20;99.90
12771;DHT22;6449;47.666;9.160;2023-07-08T05:40:29;20.20;99.90
12771;DHT22;6449;47.666;9.160;2023-07-08T05:45:22;20.20;99.90
12771;DHT22;6449;47.666;9.160;2023-07-08T05:50:16;20.20;99.90
12771;DHT22;6449;47.666;9.160;2023-07-08T05:55:09;20.10;99.90
12771;DHT22;6449;47.666;9.160;2023-07-08T06:00:05;20.00;99.90
12771;DHT22;6449;47.666;9.160;2023-07-08T06:05:00;19.90;99.90
12771;DHT22;6449;47.666;9.160;2023-07-08T06:09:53;19.90;99.90
12771;DHT22;6449;47.666;9.160;2023-07-08T06:14:47;19.90;99.90
12771;DHT22;6449;47.666;9.160;2023-07-08T06:19:44;20.00;99.90
12771;DHT22;6449;47.666;9.160;2023-07-08T06:24:37;20.00;99.90
12771;DHT22;6449;47.666;9.160;2023-07-08T06:29:31;20.00;99.90
12771;DHT22;6449;47.666;9.160;2023-07-08T06:34:28;20.00;99.90
12771;DHT22;6449;47.666;9.160;2023-07-08T06:39:23;19.90;99.90
12771;DHT22;6449;47.666;9.160;2023-07-08T06:44:16;19.80;99.90
12771;DHT22;6449;47.666;9.160;2023-07-08T06:49:10;19.80;99.90
12771;DHT22;6449;47.666;9.160;2023-07-08T06:54:04;19.80;99.90
12771;DHT22;6449;47.666;9.160;2023-07-08T06:59:04;19.80;99.90
12771;DHT22;6449;47.666;9.160;2023-07-08T07:03:58;20.00;99.90
12771;DHT22;6449;47.666;9.160;2023-07-08T07:08:52;20.20;99.90
12771;DHT22;6449;47.666;9.160;2023-07-08T07:13:45;20.40;99.90
12771;DHT22;6449;47.666;9.160;2023-07-08T07:18:40;20.50;99.90
12771;DHT22;6449;47.666;9.160;2023-07-08T07:23:33;20.60;99.90
12771;DHT22;6449;47.666;9.160;2023-07-08T07:28:27;20.70;99.90
12771;DHT22;6449;47.666;9.160;2023-07-08T07:33:20;20.70;99.90
12771;DHT22;6449;47.666;9.160;2023-07-08T07:38:15;20.80;99.90
12771;DHT22;6449;47.666;9.160;2023-07-08T07:43:08;20.70;99.90
12771;DHT22;6449;47.666;9.160;2023-07-08T07:48:03;20.70;99.90
12771;DHT22;6449;47.666;9.160;2023-07-08T07:52:56;20.80;99.90
12771;DHT22;6449;47.666;9.160;2023-07-08T07:57:51;20.90;99.90
12771;DHT22;6449;47.666;9.160;2023-07-08T08:02:45;20.90;99.90
12771;DHT22;6449;47.666;9.160;2023-07-08T08:07:38;20.80;99.90
12771;DHT22;6449;47.666;9.160;2023-07-08T08:12:32;20.70;99.90
12771;DHT22;6449;47.666;9.160;2023-07-08T08:17:44;20.70;99.90
12771;DHT22;6449;47.666;9.160;2023-07-08T08:22:41;20.80;99.90
12771;DHT22;6449;47.666;9.160;2023-07-08T08:27:34;20.90;99.90
12771;DHT22;6449;47.666;9.160;2023-07-08T08:32:27;21.10;99.90
12771;DHT22;6449;47.666;9.160;2023-07-08T08:37:22;21.30;99.90
12771;DHT22;6449;47.666;9.160;2023-07-08T08:42:20;21.40;99.90
12771;DHT22;6449;47.666;9.160;2023-07-08T08:47:25;21.50;99.90
12771;DHT22;6449;47.666;9.160;2023-07-08T08:52:26;21.70;99.90
12771;DHT22;6449;47.666;9.160;2023-07-08T08:57:31;21.90;99.90
12771;DHT22;6449;47.666;9.160;2023-07-08T09:02:34;22.00;99.90
12771;DHT22;6449;47.666;9.160;2023-07-08T09:07:44;22.20;99.90
12771;DHT22;6449;47.666;9.160;2023-07-08T09:12:45;22.50;99.90
12771;DHT22;6449;47.666;9.160;2023-07-08T09:17:43;22.70;99.90
12771;DHT22;6449;47.666;9.160;2023-07-08T09:22:42;22.90;99.90
12771;DHT22;6449;47.666;9.160;2023-07-08T09:27:38;23.00;99.90
12771;DHT22;6449;47.666;9.160;2023-07-08T09:32:32;22.90;99.90
12771;DHT22;6449;47.666;9.160;2023-07-08T09:37:27;22.80;99.90
12771;DHT22;6449;47.666;9.160;2023-07-08T09:42:31;23.00;99.90
12771;DHT22;6449;47.666;9.160;2023-07-08T09:47:27;22.90;99.90
12771;DHT22;6449;47.666;9.160;2023-07-08T09:52:25;23.20;99.90
12771;DHT22;6449;47.666;9.160;2023-07-08T09:57:28;23.40;99.90
12771;DHT22;6449;47.666;9.160;2023-07-08T10:02:29;23.50;99.90
12771;DHT22;6449;47.666;9.160;2023-07-08T10:07:28;23.50;99.90
12771;DHT22;6449;47.666;9.160;2023-07-08T10:12:23;23.70;99.90
12771;DHT22;6449;47.666;9.160;2023-07-08T10:17:20;23.60;99.90
12771;DHT22;6449;47.666;9.160;2023-07-08T10:22:28;23.70;99.90
12771;DHT22;6449;47.666;9.160;2023-07-08T10:27:35;23.40;99.90
12771;DHT22;6449;47.666;9.160;2023-07-08T10:32:43;23.60;99.90
12771;DHT22;6449;47.666;9.160;2023-07-08T10:38:00;23.90;99.90
12771;DHT22;6449;47.666;9.160;2023-07-08T10:43:25;24.20;99.90
12771;DHT22;6449;47.666;9.160;2023-07-08T10:48:54;24.20;99.90
12771;DHT22;6449;47.666;9.160;2023-07-08T10:54:16;24.00;99.90
12771;DHT22;6449;47.666;9.160;2023-07-08T10:59:38;23.80;99.90
12771;DHT22;6449;47.666;9.160;2023-07-08T11:04:52;23.90;99.90
12771;DHT22;6449;47.666;9.160;2023-07-08T11:09:58;23.90;99.90
12771;DHT22;6449;47.666;9.160;2023-07-08T11:15:00;24.20;99.90
12771;DHT22;6449;47.666;9.160;2023-07-08T11:20:02;24.30;99.90
12771;DHT22;6449;47.666;9.160;2023-07-08T11:25:07;24.10;99.90
12771;DHT22;6449;47.666;9.160;2023-07-08T11:30:14;24.10;99.90
12771;DHT22;6449;47.666;9.160;2023-07-08T11:35:35;24.10;99.90
12771;DHT22;6449;47.666;9.160;2023-07-08T11:40:50;23.90;99.90
12771;DHT22;6449;47.666;9.160;2023-07-08T11:45:49;23.90;99.90
12771;DHT22;6449;47.666;9.160;2023-07-08T11:50:46;23.80;99.90
12771;DHT22;6449;47.666;9.160;2023-07-08T11:55:44;23.80;99.90
12771;DHT22;6449;47.666;9.160;2023-07-08T12:00:52;23.80;99.90
12771;DHT22;6449;47.666;9.160;2023-07-08T12:05:53;23.80;99.90
12771;DHT22;6449;47.666;9.160;2023-07-08T12:10:52;23.90;99.90
12771;DHT22;6449;47.666;9.160;2023-07-08T12:15:45;24.00;99.90
12771;DHT22;6449;47.666;9.160;2023-07-08T12:20:40;24.20;99.90
12771;DHT22;6449;47.666;9.160;2023-07-08T12:25:35;24.20;99.90
12771;DHT22;6449;47.666;9.160;2023-07-08T12:30:31;24.40;99.90
12771;DHT22;6449;47.666;9.160;2023-07-08T12:35:27;24.30;99.90
12771;DHT22;6449;47.666;9.160;2023-07-08T12:40:23;24.60;99.90
12771;DHT22;6449;47.666;9.160;2023-07-08T12:45:22;25.40;99.90
12771;DHT22;6449;47.666;9.160;2023-07-08T12:50:17;25.60;99.90
12771;DHT22;6449;47.666;9.160;2023-07-08T12:55:11;25.80;99.90
12771;DHT22;6449;47.666;9.160;2023-07-08T13:00:12;25.80;99.90
12771;DHT22;6449;47.666;9.160;2023-07-08T13:05:12;26.00;99.90
12771;DHT22;6449;47.666;9.160;2023-07-08T13:10:07;25.90;99.90
12771;DHT22;6449;47.666;9.160;2023-07-08T13:15:15;25.80;99.90
12771;DHT22;6449;47.666;9.160;2023-07-08T13:20:15;25.70;99.90
12771;DHT22;6449;47.666;9.160;2023-07-08T13:25:14;25.80;99.90
12771;DHT22;6449;47.666;9.160;2023-07-08T13:30:18;25.80;99.90
12771;DHT22;6449;47.666;9.160;2023-07-08T13:35:25;25.80;99.90
12771;DHT22;6449;47.666;9.160;2023-07-08T13:40:21;25.80;99.90
12771;DHT22;6449;47.666;9.160;2023-07-08T13:45:17;25.70;99.90
12771;DHT22;6449;47.666;9.160;2023-07-08T13:50:22;25.80;99.90
12771;DHT22;6449;47.666;9.160;2023-07-08T13:55:21;25.80;99.90
12771;DHT22;6449;47.666;9.160;2023-07-08T14:00:16;25.80;99.90
12771;DHT22;6449;47.666;9.160;2023-07-08T14:05:10;26.00;99.90
12771;DHT22;6449;47.666;9.160;2023-07-08T14:10:10;26.10;99.90
12771;DHT22;6449;47.666;9.160;2023-07-08T14:15:06;26.00;99.90
12771;DHT22;6449;47.666;9.160;2023-07-08T14:20:00;26.00;99.90
12771;DHT22;6449;47.666;9.160;2023-07-08T14:24:55;26.00;99.90
12771;DHT22;6449;47.666;9.160;2023-07-08T14:29:52;26.10;99.90
12771;DHT22;6449;47.666;9.160;2023-07-08T14:34:51;26.00;99.90
12771;DHT22;6449;47.666;9.160;2023-07-08T14:39:45;26.00;99.90
12771;DHT22;6449;47.666;9.160;2023-07-08T14:44:41;25.90;99.90
12771;DHT22;6449;47.666;9.160;2023-07-08T14:49:38;26.00;99.90
12771;DHT22;6449;47.666;9.160;2023-07-08T14:54:31;26.10;99.90
12771;DHT22;6449;47.666;9.160;2023-07-08T14:59:27;26.10;99.90
12771;DHT22;6449;47.666;9.160;2023-07-08T15:04:22;26.00;99.90
12771;DHT22;6449;47.666;9.160;2023-07-08T15:09:17;26.00;99.90
12771;DHT22;6449;47.666;9.160;2023-07-08T15:14:16;26.00;99.90
12771;DHT22;6449;47.666;9.160;2023-07-08T15:19:12;26.10;99.90
12771;DHT22;6449;47.666;9.160;2023-07-08T15:24:09;26.10;99.90
12771;DHT22;6449;47.666;9.160;2023-07-08T15:29:06;26.20;99.90
12771;DHT22;6449;47.666;9.160;2023-07-08T15:34:08;26.30;99.90
12771;DHT22;6449;47.666;9.160;2023-07-08T15:39:06;26.40;99.90
12771;DHT22;6449;47.666;9.160;2023-07-08T15:44:00;26.30;99.90
12771;DHT22;6449;47.666;9.160;2023-07-08T15:48:55;26.30;99.90
12771;DHT22;6449;47.666;9.160;2023-07-08T15:53:48;26.30;99.90
12771;DHT22;6449;47.666;9.160;2023-07-08T15:58:43;26.40;99.90
12771;DHT22;6449;47.666;9.160;2023-07-08T16:03:38;26.30;99.90
12771;DHT22;6449;47.666;9.160;2023-07-08T16:08:33;26.30;99.90
12771;DHT22;6449;47.666;9.160;2023-07-08T16:13:27;26.20;99.90
12771;DHT22;6449;47.666;9.160;2023-07-08T16:18:23;26.20;99.90
12771;DHT22;6449;47.666;9.160;2023-07-08T16:23:17;26.20;99.90
12771;DHT22;6449;47.666;9.160;2023-07-08T16:28:20;26.10;99.90
12771;DHT22;6449;47.666;9.160;2023-07-08T16:33:18;26.10;99.90
12771;DHT22;6449;47.666;9.160;2023-07-08T16:38:11;26.10;99.90
12771;DHT22;6449;47.666;9.160;2023-07-08T16:43:20;26.10;99.90
12771;DHT22;6449;47.666;9.160;2023-07-08T16:48:16;26.20;99.90
12771;DHT22;6449;47.666;9.160;2023-07-08T16:53:10;26.20;99.90
12771;DHT22;6449;47.666;9.160;2023-07-08T16:58:04;26.10;99.90
12771;DHT22;6449;47.666;9.160;2023-07-08T17:03:02;26.10;99.90
12771;DHT22;6449;47.666;9.160;2023-07-08T17:07:56;26.10;99.90
12771;DHT22;6449;47.666;9.160;2023-07-08T17:12:50;26.10;99.90
12771;DHT22;6449;47.666;9.160;2023-07-08T17:17:48;26.10;99.90
12771;DHT22;6449;47.666;9.160;2023-07-08T17:22:44;26.10;99.90
12771;DHT22;6449;47.666;9.160;2023-07-08T17:27:38;26.00;99.90
12771;DHT22;6449;47.666;9.160;2023-07-08T17:32:31;26.00;99.90
12771;DHT22;6449;47.666;9.160;2023-07-08T17:37:25;26.00;99.90
12771;DHT22;6449;47.666;9.160;2023-07-08T17:42:20;26.00;99.90
12771;DHT22;6449;47.666;9.160;2023-07-08T17:47:14;26.00;99.90
12771;DHT22;6449;47.666;9.160;2023-07-08T17:52:10;26.00;99.90
12771;DHT22;6449;47.666;9.160;2023-07-08T17:57:04;26.00;99.90
12771;DHT22;6449;47.666;9.160;2023-07-08T18:01:59;26.00;99.90
12771;DHT22;6449;47.666;9.160;2023-07-08T18:06:52;25.90;99.90
12771;DHT22;6449;47.666;9.160;2023-07-08T18:11:47;25.80;99.90
12771;DHT22;6449;47.666;9.160;2023-07-08T18:16:41;25.80;99.90
12771;DHT22;6449;47.666;9.160;2023-07-08T18:21:38;25.80;99.90
12771;DHT22;6449;47.666;9.160;2023-07-08T18:26:31;25.70;99.90
12771;DHT22;6449;47.666;9.160;2023-07-08T18:31:27;25.60;99.90
12771;DHT22;6449;47.666;9.160;2023-07-08T18:36:24;25.40;99.90
12771;DHT22;6449;47.666;9.160;2023-07-08T18:41:21;25.20;99.90
12771;DHT22;6449;47.666;9.160;2023-07-08T18:46:16;25.00;99.90
12771;DHT22;6449;47.666;9.160;2023-07-08T18:51:12;24.90;99.90
12771;DHT22;6449;47.666;9.160;2023-07-08T18:56:12;24.70;99.90
12771;DHT22;6449;47.666;9.160;2023-07-08T19:01:13;24.50;99.90
12771;DHT22;6449;47.666;9.160;2023-07-08T19:06:09;24.30;99.90
12771;DHT22;6449;47.666;9.160;2023-07-08T19:11:07;24.20;99.90
12771;DHT22;6449;47.666;9.160;2023-07-08T19:16:10;24.10;99.90
12771;DHT22;6449;47.666;9.160;2023-07-08T19:21:09;24.10;99.90
12771;DHT22;6449;47.666;9.160;2023-07-08T19:26:04;24.00;99.90
12771;DHT22;6449;47.666;9.160;2023-07-08T19:30:58;23.90;99.90
12771;DHT22;6449;47.666;9.160;2023-07-08T19:35:53;23.80;99.90
12771;DHT22;6449;47.666;9.160;2023-07-08T19:40:49;23.60;99.90
12771;DHT22;6449;47.666;9.160;2023-07-08T19:45:45;23.40;99.90
12771;DHT22;6449;47.666;9.160;2023-07-08T19:50:39;23.50;99.90
12771;DHT22;6449;47.666;9.160;2023-07-08T19:55:34;23.50;99.90
12771;DHT22;6449;47.666;9.160;2023-07-08T20:00:29;23.50;99.90
12771;DHT22;6449;47.666;9.160;2023-07-08T20:05:30;23.60;99.90
12771;DHT22;6449;47.666;9.160;2023-07-08T20:10:25;23.50;99.90
12771;DHT22;6449;47.666;9.160;2023-07-08T20:15:19;23.40;99.90
12771;DHT22;6449;47.666;9.160;2023-07-08T20:20:20;23.10;99.90
12771;DHT22;6449;47.666;9.160;2023-07-08T20:25:16;22.70;99.90
12771;DHT22;6449;47.666;9.160;2023-07-08T20:30:25;22.60;99.90
12771;DHT22;6449;47.666;9.160;2023-07-08T20:35:23;22.60;99.90
12771;DHT22;6449;47.666;9.160;2023-07-08T20:40:20;22.60;99.90
12771;DHT22;6449;47.666;9.160;2023-07-08T20:45:18;22.50;99.90
12771;DHT22;6449;47.666;9.160;2023-07-08T20:50:17;22.50;99.90
12771;DHT22;6449;47.666;9.160;2023-07-08T20:55:13;22.50;99.90
12771;DHT22;6449;47.666;9.160;2023-07-08T21:00:24;22.60;99.90
12771;DHT22;6449;47.666;9.160;2023-07-08T21:05:20;22.30;99.90
12771;DHT22;6449;47.666;9.160;2023-07-08T21:10:18;22.10;99.90
12771;DHT22;6449;47.666;9.160;2023-07-08T21:15:14;22.10;99.90
12771;DHT22;6449;47.666;9.160;2023-07-08T21:20:17;21.90;99.90
12771;DHT22;6449;47.666;9.160;2023-07-08T21:25:14;21.90;99.90
12771;DHT22;6449;47.666;9.160;2023-07-08T21:30:15;21.80;99.90
12771;DHT22;6449;47.666;9.160;2023-07-08T21:35:10;21.60;99.90
12771;DHT22;6449;47.666;9.160;2023-07-08T21:40:09;21.70;99.90
12771;DHT22;6449;47.666;9.160;2023-07-08T21:45:24;21.50;99.90
12771;DHT22;6449;47.666;9.160;2023-07-08T21:50:19;21.40;99.90
12771;DHT22;6449;47.666;9.160;2023-07-08T21:55:14;21.60;99.90
12771;DHT22;6449;47.666;9.160;2023-07-08T22:00:11;21.40;99.90
12771;DHT22;6449;47.666;9.160;2023-07-08T22:05:07;21.30;99.90
12771;DHT22;6449;47.666;9.160;2023-07-08T22:10:05;21.30;99.90
12771;DHT22;6449;47.666;9.160;2023-07-08T22:15:01;21.10;99.90
12771;DHT22;6449;47.666;9.160;2023-07-08T22:19:56;21.10;99.90
12771;DHT22;6449;47.666;9.160;2023-07-08T22:24:49;21.00;99.90
12771;DHT22;6449;47.666;9.160;2023-07-08T22:29:43;20.80;99.90
12771;DHT22;6449;47.666;9.160;2023-07-08T22:34:36;20.80;99.90
12771;DHT22;6449;47.666;9.160;2023-07-08T22:39:31;20.90;99.90
12771;DHT22;6449;47.666;9.160;2023-07-08T22:44:24;21.00;99.90
12771;DHT22;6449;47.666;9.160;2023-07-08T22:49:18;21.10;99.90
12771;DHT22;6449;47.666;9.160;2023-07-08T22:54:17;20.70;99.90
12771;DHT22;6449;47.666;9.160;2023-07-08T22:59:12;20.80;99.90
12771;DHT22;6449;47.666;9.160;2023-07-08T23:04:05;20.70;99.90
12771;DHT22;6449;47.666;9.160;2023-07-08T23:08:59;20.60;99.90
12771;DHT22;6449;47.666;9.160;2023-07-08T23:13:53;20.50;99.90
12771;DHT22;6449;47.666;9.160;2023-07-08T23:18:50;20.50;99.90
12771;DHT22;6449;47.666;9.160;2023-07-08T23:23:44;20.40;99.90
12771;DHT22;6449;47.666;9.160;2023-07-08T23:28:39;20.30;99.90
12771;DHT22;6449;47.666;9.160;2023-07-08T23:33:32;20.30;99.90
12771;DHT22;6449;47.666;9.160;2023-07-08T23:38:27;20.20;99.90
12771;DHT22;6449;47.666;9.160;2023-07-08T23:43:22;20.00;99.90
12771;DHT22;6449;47.666;9.160;2023-07-08T23:48:16;19.90;99.90
12771;DHT22;6449;47.666;9.160;2023-07-08T23:53:13;20.00;99.90
12771;DHT22;6449;47.666;9.160;2023-07-08T23:58:12;20.20;99.90
